createdAt,value
2018-12-05T00:04:56.211Z,8.40
2018-12-05T00:15:00.351Z,9.00
2018-12-05T00:25:04.539Z,13.27
2018-12-05T00:35:08.879Z,8.07
2018-12-05T00:45:13.124Z,8.43
2018-12-05T00:55:17.361Z,8.67
2018-12-05T01:05:21.622Z,9.40
2018-12-05T01:15:25.716Z,8.10
2018-12-05T01:25:29.940Z,8.07
2018-12-05T01:35:33.801Z,8.33
2018-12-05T01:45:38.003Z,7.90
2018-12-05T01:55:42.192Z,8.77
2018-12-05T02:05:46.373Z,8.23
2018-12-05T02:15:50.801Z,7.13
2018-12-05T02:25:54.952Z,9.93
2018-12-05T02:35:58.912Z,8.10
2018-12-05T02:46:02.778Z,6.33
2018-12-05T02:56:06.946Z,6.50
2018-12-05T03:06:10.762Z,7.63
2018-12-05T03:16:14.500Z,8.13
2018-12-05T03:26:18.199Z,5.83
2018-12-05T03:36:22.489Z,6.13
2018-12-05T03:46:26.631Z,6.50
2018-12-05T03:56:30.918Z,8.87
2018-12-05T04:06:35.090Z,5.70
2018-12-05T04:16:38.966Z,8.93
2018-12-05T04:26:42.995Z,7.40
2018-12-05T04:36:47.227Z,6.23
2018-12-05T04:46:51.254Z,6.53
2018-12-05T04:56:55.004Z,5.93
2018-12-05T05:06:59.078Z,4.40
2018-12-05T05:17:03.162Z,6.40
2018-12-05T05:27:07.536Z,4.03
2018-12-05T05:37:11.429Z,5.47
2018-12-05T05:47:15.150Z,7.53
2018-12-05T05:57:19.250Z,4.90
2018-12-05T06:07:23.412Z,7.27
2018-12-05T06:17:27.552Z,10.00
2018-12-05T06:27:31.718Z,6.10
2018-12-05T06:37:35.642Z,5.83
2018-12-05T06:47:39.390Z,5.67
2018-12-05T06:57:43.355Z,7.10
2018-12-05T07:07:47.486Z,5.47
2018-12-05T07:17:51.841Z,7.33
2018-12-05T07:27:55.766Z,6.23
2018-12-05T07:37:59.661Z,7.50
2018-12-05T07:48:03.917Z,8.17
2018-12-05T07:58:07.817Z,11.10
2018-12-05T08:08:12.307Z,7.10
2018-12-05T08:18:16.462Z,12.40
2018-12-05T08:28:20.668Z,11.30
2018-12-05T08:38:25.471Z,10.37
2018-12-05T08:48:29.767Z,9.30
2018-12-05T08:58:33.988Z,13.57
2018-12-05T09:08:38.364Z,10.27
2018-12-05T09:18:42.452Z,12.33
2018-12-05T09:28:46.797Z,15.47
2018-12-05T09:38:50.652Z,8.17
2018-12-05T09:48:55.225Z,10.00
2018-12-05T09:58:59.598Z,7.30
2018-12-05T10:09:05.147Z,9.93
2018-12-05T10:19:10.336Z,8.67
2018-12-05T10:29:14.865Z,6.70
2018-12-05T10:39:18.968Z,7.03
2018-12-05T10:49:24.191Z,7.03
2018-12-05T10:59:28.185Z,7.30
2018-12-05T11:09:37.467Z,6.37
2018-12-05T11:19:46.806Z,7.33
2018-12-05T11:29:51.063Z,8.20
2018-12-05T11:39:55.300Z,6.20
2018-12-05T11:49:59.361Z,8.80
2018-12-05T12:00:03.636Z,7.13
2018-12-05T12:10:09.117Z,9.47
2018-12-05T12:20:13.785Z,8.80
2018-12-05T12:30:18.020Z,10.27
2018-12-05T12:40:21.927Z,6.00
2018-12-05T12:50:26.052Z,7.93
2018-12-05T13:00:30.527Z,8.20
2018-12-05T13:10:34.937Z,9.73
2018-12-05T13:20:38.953Z,10.17
2018-12-05T13:30:42.967Z,9.90
2018-12-05T13:40:47.155Z,9.10
2018-12-05T13:50:51.474Z,7.03
2018-12-05T14:00:55.594Z,7.13
2018-12-05T14:10:59.780Z,12.73
2018-12-05T14:21:04.102Z,15.37
2018-12-05T14:31:07.963Z,14.77
2018-12-05T14:41:12.016Z,10.40
2018-12-05T14:51:15.849Z,10.60
2018-12-05T15:01:20.091Z,9.73
2018-12-05T15:11:24.192Z,11.73
2018-12-05T15:21:28.341Z,10.40
2018-12-05T15:31:32.195Z,6.73
2018-12-05T15:41:36.505Z,7.70
2018-12-05T15:51:41.133Z,13.57
2018-12-05T16:01:45.330Z,9.93
2018-12-05T16:11:49.459Z,11.17
2018-12-05T16:21:53.810Z,7.50
2018-12-05T16:31:58.037Z,9.77
2018-12-05T16:42:01.960Z,12.87
2018-12-05T16:52:05.893Z,9.67
2018-12-05T17:02:10.336Z,11.47
2018-12-05T17:12:14.658Z,16.50
2018-12-05T17:22:18.897Z,12.07
2018-12-05T17:32:23.161Z,12.40
2018-12-05T17:42:27.386Z,12.70
2018-12-05T17:52:31.833Z,17.13
2018-12-05T18:02:36.147Z,19.87
2018-12-05T18:12:40.312Z,11.43
2018-12-05T18:22:44.585Z,13.20
2018-12-05T18:32:48.637Z,12.00
2018-12-05T18:42:52.756Z,11.23
2018-12-05T18:52:56.894Z,14.13
2018-12-05T19:03:02.048Z,12.70
2018-12-05T19:13:06.212Z,9.47
2018-12-05T19:23:10.217Z,15.23
2018-12-05T19:33:14.313Z,14.77
2018-12-05T19:43:18.683Z,12.07
2018-12-05T19:53:23.143Z,16.13
2018-12-05T20:03:29.821Z,14.33
2018-12-05T20:13:35.906Z,14.00
2018-12-05T20:23:40.436Z,13.13
2018-12-05T20:33:44.727Z,17.40
2018-12-05T20:43:49.379Z,12.83
2018-12-05T20:53:53.221Z,15.07
2018-12-05T21:03:57.353Z,12.83
2018-12-05T21:14:01.766Z,13.57
2018-12-05T21:24:06.177Z,12.73
2018-12-05T21:34:10.704Z,12.47
2018-12-05T21:44:15.286Z,16.67
2018-12-05T21:54:19.642Z,15.87
2018-12-05T22:04:23.805Z,12.50
2018-12-05T22:14:28.025Z,15.17
2018-12-05T22:24:31.969Z,15.43
2018-12-05T22:34:36.103Z,16.93
2018-12-05T22:44:40.357Z,15.50
2018-12-05T22:54:44.619Z,14.93
2018-12-05T23:04:48.924Z,15.47
2018-12-05T23:14:53.301Z,17.17
2018-12-05T23:24:57.678Z,15.07
2018-12-05T23:35:01.908Z,17.20
2018-12-05T23:45:06.437Z,14.93
2018-12-05T23:55:10.549Z,16.23
